To NAV CANADA Home Page Login to a new session Search on AWWS site Feedback and Comments Disclaimer Vers la page française équivalente Tips FAQ What's new on the site To the Forecasts and Observations / NOTAM section To "File a Flight Plan" website Publications and other links Update of the User's profile FIC Telephone Numbers My Weather Data Folder Route Weather Data Regional Weather Data Local Weather Data To the Forecasts and Observations / NOTAM section
Request Generated 08/30/2015 at 07:47:53 UTC . Weather information available at that time is displayed.

METAR/TAF

RANKIN INLET/NU    

METAR CYRT 300700Z 08002KT 15SM SCT250 05/04 A2996 RMK CI3 SLP148=
METAR CYRT 300600Z 10004KT 15SM SCT250 06/05 A2995 RMK CI3 SLP143=
METAR CYRT 300500Z 09004KT 15SM SCT250 06/05 A2995 RMK CI4 SLP144=

TAF CYRT 300538Z 3006/3018 10008KT P6SM SCT250 PROB30 3006/3018 1/2SM
FG
RMK NXT FCST BY 301200Z=
Your time UTC time
Weather data provided by Environment Canada and NAV CANADA